Overview Statistics Trail Chart Weather Telemetry Raw packets
 

This is the latest recevied weather packets stored in our database for station/object HS2LXA-WX. If no packets are shown the sender has not sent any weather packets the latest 10 day(s).

<< 37 38 39 40 41 42 43 >>
Time Temp. Humidity Pressure Rain* Wind** Luminosity Snow
1787996732 30° C 94% 1008.1 hPa 1.02 mm - - -
1787994439 30° C 94% 1007.9 hPa 1.02 mm - - -
1787993839 30° C 94% 1008 hPa 1.02 mm - - -
1787992891 30.56° C 91% 1008.1 hPa 1.02 mm - - -
1787991853 30.56° C 92% 1008.3 hPa 1.02 mm - - -
1787989512 31.11° C 88% 1008.3 hPa 0 mm - - -
1787988544 31.11° C 90% 1008.4 hPa 0 mm - - -
1787986876 31.67° C 85% 1008.8 hPa 0 mm - - -
1787986276 31.67° C 85% 1008.8 hPa 0 mm - - -
1787985309 31.67° C 83% 1009.1 hPa 0 mm - - -
1787984440 32.22° C 83% 1009.2 hPa 0 mm - - -
1787983839 32.78° C 82% 1009.4 hPa 0 mm - - -
1787983141 32.78° C 81% 1009.6 hPa 0 mm - - -
1787982541 32.78° C 81% 1009.8 hPa 0 mm - - -
1787981940 32.78° C 85% 1009.8 hPa 0 mm - - -
1787981339 32.22° C 87% 1009.9 hPa 0 mm - - -
1787980739 31.67° C 88% 1010 hPa 0 mm - - -
1787980139 31.67° C 87% 1010.1 hPa 0 mm - - -
1787979539 31.67° C 87% 1010.3 hPa 0 mm - - -
1787978939 32.22° C 88% 1010.4 hPa 0 mm - - -
1787978339 31.67° C 89% 1010.7 hPa 0 mm - - -
1787977739 31.11° C 89% 1011 hPa 0 mm - - -
1787977137 31.11° C 91% 1011 hPa 0 mm - - -
1787976537 30.56° C 94% 1010.9 hPa 0 mm - - -
1787954243 29.44° C 91% 1009.1 hPa 0 mm - - -

* Rain latest hour (hover to see other rain measurements)
** Current wind speed in m/s (hover to see current wind gust speed)